Time;durP1;ratioP1;P1;durP2;ratioP2;P2;SDS_P1;SDS_P2;PMS_P1;PMS_P2;Temp;Humidity;BMP_temperature;BMP_pressure;BME280_temperature;BME280_humidity;BME280_pressure;Samples;Min_cycle;Max_cycle;Signal;HPM_P1;HPM_P2
2022/03/01 00:00:40;;;;;;;0.20;0.20;;;;;;;;;;4999499;28;20244;-68
2022/03/01 00:03:06;;;;;;;0.20;0.20;;;;;;;;;;5016648;28;20524;-70
2022/03/01 00:05:32;;;;;;;0.30;0.30;;;;;;;;;;4998579;28;20330;-71
2022/03/01 00:07:58;;;;;;;0.20;0.20;;;;;;;;;;5016898;28;20206;-71
2022/03/01 00:10:25;;;;;;;0.30;0.30;;;;;;;;;;4997728;28;20332;-70
2022/03/01 00:12:52;;;;;;;0.40;0.40;;;;;;;;;;5017754;28;20217;-71
2022/03/01 00:15:18;;;;;;;0.90;0.90;;;;;;;;;;4996564;28;20276;-71
2022/03/01 00:17:45;;;;;;;0.30;0.30;;;;;;;;;;5018839;28;20202;-70
2022/03/01 00:20:12;;;;;;;0.53;0.53;;;;;;;;;;4996052;28;20501;-70
2022/03/01 00:22:38;;;;;;;0.30;0.30;;;;;;;;;;5019790;28;20504;-71
2022/03/01 00:25:05;;;;;;;1.03;1.03;;;;;;;;;;5005465;28;20202;-71
2022/03/01 00:27:31;;;;;;;0.30;0.30;;;;;;;;;;4977822;28;20447;-70
2022/03/01 00:29:58;;;;;;;0.20;0.20;;;;;;;;;;5005079;28;20206;-70
2022/03/01 00:32:25;;;;;;;0.30;0.30;;;;;;;;;;5010137;28;20244;-70
2022/03/01 00:34:51;;;;;;;0.30;0.30;;;;;;;;;;5004967;28;20226;-71
2022/03/01 00:37:17;;;;;;;1.23;1.23;;;;;;;;;;5010067;28;20241;-71
2022/03/01 00:39:43;;;;;;;0.30;0.30;;;;;;;;;;5004032;28;20245;-70
2022/03/01 00:42:09;;;;;;;0.77;0.77;;;;;;;;;;5009979;28;20240;-70
2022/03/01 00:44:43;;;;;;;0.67;0.67;;;;;;;;;;5005214;28;20206;-70
2022/03/01 00:47:11;;;;;;;0.30;0.30;;;;;;;;;;5010070;28;20240;-71
2022/03/01 00:49:37;;;;;;;0.30;0.30;;;;;;;;;;5004553;28;20252;-70
2022/03/01 00:52:04;;;;;;;1.07;1.00;;;;;;;;;;5009671;28;20245;-71
2022/03/01 00:54:30;;;;;;;0.30;0.30;;;;;;;;;;5005090;28;20411;-71
2022/03/01 00:56:56;;;;;;;0.93;0.93;;;;;;;;;;5008619;28;20417;-71
2022/03/01 00:59:22;;;;;;;0.40;0.40;;;;;;;;;;5005561;28;20209;-70
2022/03/01 01:01:48;;;;;;;0.60;0.60;;;;;;;;;;5007697;28;20577;-71
2022/03/01 01:04:16;;;;;;;0.23;0.23;;;;;;;;;;5006624;28;20232;-70
2022/03/01 01:06:42;;;;;;;0.30;0.30;;;;;;;;;;5006589;28;20303;-71
2022/03/01 01:09:12;;;;;;;0.30;0.30;;;;;;;;;;5007552;28;20229;-71
2022/03/01 01:11:39;;;;;;;0.40;0.40;;;;;;;;;;5006255;28;20339;-70
2022/03/01 01:14:05;;;;;;;0.50;0.50;;;;;;;;;;5007703;28;20206;-70
2022/03/01 01:16:31;;;;;;;0.40;0.40;;;;;;;;;;5005025;28;20284;-70
2022/03/01 01:18:58;;;;;;;0.30;0.30;;;;;;;;;;5008692;28;20249;-71
2022/03/01 01:22:39;;;;;;;0.30;0.30;;;;;;;;;;5004093;28;20279;-70
2022/03/01 01:24:12;;;;;;;0.30;0.30;;;;;;;;;;5006707;28;20389;-70
2022/03/01 01:26:38;;;;;;;0.30;0.30;;;;;;;;;;5005811;28;20296;-70
2022/03/01 01:29:16;;;;;;;0.70;0.70;;;;;;;;;;5007721;28;20207;-70
2022/03/01 01:31:42;;;;;;;0.33;0.33;;;;;;;;;;5005749;28;20241;-63
2022/03/01 01:34:08;;;;;;;0.30;0.30;;;;;;;;;;5006690;28;20241;-64
2022/03/01 01:36:36;;;;;;;0.20;0.20;;;;;;;;;;5005102;28;20245;-64
2022/03/01 01:39:03;;;;;;;0.30;0.30;;;;;;;;;;5007834;28;20213;-64
2022/03/01 01:41:30;;;;;;;0.47;0.47;;;;;;;;;;5004544;28;20482;-65
2022/03/01 01:43:57;;;;;;;0.30;0.30;;;;;;;;;;5008418;28;20205;-63
2022/03/01 01:46:23;;;;;;;0.33;0.33;;;;;;;;;;5003870;28;20296;-63
2022/03/01 01:48:49;;;;;;;0.63;0.63;;;;;;;;;;5009152;28;20441;-63
2022/03/01 01:51:16;;;;;;;0.60;0.60;;;;;;;;;;5002430;28;20300;-63
2022/03/01 01:53:43;;;;;;;0.40;0.40;;;;;;;;;;5010199;28;20227;-64
2022/03/01 01:56:09;;;;;;;0.20;0.20;;;;;;;;;;5001860;28;20241;-63
2022/03/01 01:58:36;;;;;;;0.20;0.20;;;;;;;;;;5010733;28;20210;-63
2022/03/01 02:01:02;;;;;;;0.30;0.30;;;;;;;;;;5000690;28;20291;-63
2022/03/01 02:03:28;;;;;;;0.30;0.30;;;;;;;;;;5011840;28;20328;-63
2022/03/01 02:05:54;;;;;;;0.27;0.27;;;;;;;;;;4999638;28;20553;-64
2022/03/01 02:08:28;;;;;;;0.43;0.43;;;;;;;;;;5012313;28;20273;-63
2022/03/01 02:10:56;;;;;;;0.30;0.30;;;;;;;;;;4999779;28;20308;-62
2022/03/01 02:13:22;;;;;;;0.30;0.30;;;;;;;;;;5012396;28;20435;-63
2022/03/01 02:15:48;;;;;;;0.40;0.40;;;;;;;;;;4998844;28;20559;-64
2022/03/01 02:18:15;;;;;;;0.30;0.30;;;;;;;;;;5012943;28;20209;-64
2022/03/01 02:20:43;;;;;;;0.30;0.30;;;;;;;;;;4998208;28;20289;-62
2022/03/01 02:23:09;;;;;;;0.20;0.20;;;;;;;;;;5013981;28;20205;-63
2022/03/01 02:25:36;;;;;;;0.30;0.30;;;;;;;;;;4997370;28;20250;-63
2022/03/01 02:28:02;;;;;;;0.30;0.30;;;;;;;;;;5014304;28;20206;-64
2022/03/01 02:30:29;;;;;;;13.30;9.00;;;;;;;;;;4996361;28;20245;-64
2022/03/01 02:32:55;;;;;;;0.37;0.37;;;;;;;;;;5015182;28;20284;-63
2022/03/01 02:35:23;;;;;;;0.30;0.30;;;;;;;;;;4995218;28;20540;-64
2022/03/01 02:37:50;;;;;;;0.30;0.30;;;;;;;;;;5015807;28;20236;-63
2022/03/01 02:40:17;;;;;;;0.33;0.33;;;;;;;;;;4994831;28;20387;-63
2022/03/01 02:42:45;;;;;;;0.30;0.30;;;;;;;;;;5016783;28;20378;-63
2022/03/01 02:45:12;;;;;;;0.80;0.80;;;;;;;;;;4994014;28;20282;-63
2022/03/01 02:47:38;;;;;;;0.30;0.30;;;;;;;;;;5017319;28;20198;-63
2022/03/01 02:50:06;;;;;;;0.30;0.30;;;;;;;;;;4998287;28;20206;-64
2022/03/01 02:52:35;;;;;;;0.30;0.30;;;;;;;;;;5018030;28;20228;-64
2022/03/01 02:55:03;;;;;;;0.30;0.30;;;;;;;;;;5003036;28;20446;-64
2022/03/01 02:57:29;;;;;;;0.30;0.30;;;;;;;;;;4975612;28;20214;-63
2022/03/01 02:59:56;;;;;;;5.43;4.17;;;;;;;;;;5002847;28;20256;-64
2022/03/01 03:02:22;;;;;;;0.30;0.30;;;;;;;;;;5008656;28;20240;-63
2022/03/01 03:04:48;;;;;;;0.30;0.30;;;;;;;;;;5006732;28;20213;-62
2022/03/01 03:07:15;;;;;;;0.30;0.30;;;;;;;;;;5011781;28;20272;-65
2022/03/01 03:09:41;;;;;;;0.30;0.30;;;;;;;;;;5006915;28;20206;-64
2022/03/01 03:12:09;;;;;;;0.30;0.30;;;;;;;;;;5011903;28;20302;-64
2022/03/01 03:14:36;;;;;;;0.30;0.30;;;;;;;;;;5006939;28;20233;-63
2022/03/01 03:17:02;;;;;;;0.30;0.30;;;;;;;;;;5011173;28;20432;-64
2022/03/01 03:19:28;;;;;;;0.20;0.20;;;;;;;;;;5007054;28;20248;-64
2022/03/01 03:21:54;;;;;;;0.30;0.30;;;;;;;;;;5010175;28;20313;-63
2022/03/01 03:24:21;;;;;;;0.30;0.30;;;;;;;;;;5007953;28;20214;-63
2022/03/01 03:26:47;;;;;;;0.73;0.73;;;;;;;;;;5009243;28;20248;-62
2022/03/01 03:29:15;;;;;;;0.30;0.30;;;;;;;;;;5008831;28;20206;-63
2022/03/01 03:31:43;;;;;;;0.30;0.30;;;;;;;;;;5008204;28;20295;-71
2022/03/01 03:34:10;;;;;;;0.30;0.30;;;;;;;;;;5008833;28;20261;-70
2022/03/01 03:36:36;;;;;;;0.30;0.30;;;;;;;;;;5007535;28;20236;-70
2022/03/01 03:39:03;;;;;;;0.30;0.30;;;;;;;;;;5010089;28;20220;-70
2022/03/01 03:41:29;;;;;;;0.30;0.30;;;;;;;;;;5006772;28;20315;-70
2022/03/01 03:43:55;;;;;;;0.20;0.20;;;;;;;;;;5010793;28;20233;-70
2022/03/01 03:46:23;;;;;;;0.30;0.30;;;;;;;;;;5005676;28;20248;-70
2022/03/01 03:48:50;;;;;;;0.30;0.30;;;;;;;;;;5011168;28;20229;-69
2022/03/01 03:51:16;;;;;;;0.30;0.30;;;;;;;;;;5004870;28;20314;-70
2022/03/01 03:53:42;;;;;;;0.30;0.30;;;;;;;;;;5012262;28;20508;-70
2022/03/01 03:56:08;;;;;;;0.97;0.97;;;;;;;;;;5003823;28;20551;-70
2022/03/01 03:58:35;;;;;;;0.40;0.40;;;;;;;;;;5013118;28;20206;-71
2022/03/01 04:01:01;;;;;;;0.30;0.30;;;;;;;;;;5002386;28;20240;-70
2022/03/01 04:03:30;;;;;;;0.30;0.30;;;;;;;;;;5014572;28;20249;-70
2022/03/01 04:05:56;;;;;;;0.30;0.30;;;;;;;;;;5001939;28;20287;-70
2022/03/01 04:08:22;;;;;;;0.30;0.30;;;;;;;;;;5014478;28;20456;-69
2022/03/01 04:10:49;;;;;;;0.30;0.30;;;;;;;;;;5001034;28;20626;-71
2022/03/01 04:13:15;;;;;;;1.50;1.50;;;;;;;;;;5015121;28;20217;-71
2022/03/01 04:15:41;;;;;;;1.17;1.07;;;;;;;;;;4999656;28;20244;-70
2022/03/01 04:18:07;;;;;;;0.30;0.30;;;;;;;;;;5016490;28;20232;-71
2022/03/01 04:20:35;;;;;;;1.17;1.17;;;;;;;;;;4998946;28;20252;-70
2022/03/01 04:23:01;;;;;;;0.33;0.33;;;;;;;;;;5017038;28;20248;-71
2022/03/01 04:25:28;;;;;;;0.63;0.63;;;;;;;;;;4998393;28;20244;-70
2022/03/01 04:27:55;;;;;;;0.30;0.30;;;;;;;;;;5017370;28;20209;-71
2022/03/01 04:30:22;;;;;;;0.30;0.30;;;;;;;;;;4997350;28;20305;-71
2022/03/01 04:32:49;;;;;;;0.30;0.30;;;;;;;;;;5017955;28;20233;-71
2022/03/01 04:35:16;;;;;;;0.30;0.30;;;;;;;;;;4996419;28;20221;-70
2022/03/01 04:37:44;;;;;;;0.30;0.30;;;;;;;;;;5018647;28;20217;-70
2022/03/01 04:40:12;;;;;;;0.50;0.50;;;;;;;;;;4995848;28;20395;-70
2022/03/01 04:42:38;;;;;;;0.60;0.60;;;;;;;;;;5019241;28;20366;-70
2022/03/01 04:45:06;;;;;;;0.30;0.30;;;;;;;;;;5002945;28;20358;-69
2022/03/01 04:47:33;;;;;;;0.43;0.43;;;;;;;;;;5019644;28;20288;-71
2022/03/01 04:49:59;;;;;;;0.30;0.30;;;;;;;;;;5004716;28;20244;-71
2022/03/01 04:52:25;;;;;;;0.40;0.40;;;;;;;;;;5009797;28;20245;-71
2022/03/01 04:54:53;;;;;;;0.40;0.40;;;;;;;;;;5004749;28;20209;-70
2022/03/01 04:57:19;;;;;;;0.30;0.30;;;;;;;;;;5009509;28;20267;-71
2022/03/01 04:59:45;;;;;;;0.30;0.30;;;;;;;;;;5004661;28;20437;-70
2022/03/01 05:02:11;;;;;;;0.60;0.60;;;;;;;;;;5009414;28;20543;-71
2022/03/01 05:04:37;;;;;;;0.40;0.40;;;;;;;;;;5004187;28;20270;-71
2022/03/01 05:07:04;;;;;;;0.30;0.30;;;;;;;;;;5009098;28;20260;-71
2022/03/01 05:09:30;;;;;;;0.30;0.30;;;;;;;;;;5005034;28;20556;-71
2022/03/01 05:11:57;;;;;;;3.10;3.00;;;;;;;;;;5008319;28;20291;-70
2022/03/01 05:14:24;;;;;;;0.30;0.30;;;;;;;;;;5005690;28;20229;-70
2022/03/01 05:16:50;;;;;;;0.30;0.30;;;;;;;;;;5007367;28;20236;-70
2022/03/01 05:19:16;;;;;;;0.30;0.30;;;;;;;;;;5006389;28;20209;-70
2022/03/01 05:21:43;;;;;;;0.30;0.30;;;;;;;;;;5006513;28;20241;-70
2022/03/01 05:24:10;;;;;;;0.30;0.30;;;;;;;;;;5007133;28;20206;-70
2022/03/01 05:26:36;;;;;;;0.30;0.30;;;;;;;;;;5004854;28;20244;-70
2022/03/01 05:29:03;;;;;;;0.30;0.30;;;;;;;;;;5007762;28;20244;-70
2022/03/01 05:31:30;;;;;;;0.30;0.30;;;;;;;;;;5004567;28;20564;-70
2022/03/01 05:33:56;;;;;;;0.30;0.30;;;;;;;;;;5008253;28;20256;-70
2022/03/01 05:36:22;;;;;;;0.40;0.40;;;;;;;;;;5003740;28;20245;-70
2022/03/01 05:38:49;;;;;;;0.30;0.30;;;;;;;;;;5009557;28;20214;-71
2022/03/01 05:41:15;;;;;;;0.50;0.50;;;;;;;;;;5002652;28;20244;-70
2022/03/01 05:43:42;;;;;;;0.30;0.30;;;;;;;;;;5010274;28;20205;-70
2022/03/01 05:46:09;;;;;;;0.30;0.30;;;;;;;;;;5001892;28;20236;-70
2022/03/01 05:48:36;;;;;;;0.30;0.30;;;;;;;;;;5011155;28;20212;-70
2022/03/01 05:51:04;;;;;;;0.50;0.50;;;;;;;;;;5000949;28;20241;-70
2022/03/01 05:53:30;;;;;;;0.30;0.30;;;;;;;;;;5011772;28;20292;-71
2022/03/01 05:55:57;;;;;;;0.30;0.30;;;;;;;;;;4999868;28;20248;-71
2022/03/01 05:58:23;;;;;;;1.37;1.37;;;;;;;;;;5012830;28;20209;-71
2022/03/01 06:00:49;;;;;;;0.30;0.30;;;;;;;;;;4998806;28;20275;-71
2022/03/01 06:03:17;;;;;;;0.40;0.40;;;;;;;;;;5013852;28;20205;-70
2022/03/01 06:05:43;;;;;;;0.83;0.83;;;;;;;;;;4998270;28;20576;-71
2022/03/01 06:08:12;;;;;;;0.30;0.30;;;;;;;;;;5013632;28;20213;-70
2022/03/01 06:10:38;;;;;;;0.30;0.30;;;;;;;;;;4997773;28;20248;-71
2022/03/01 06:13:04;;;;;;;0.30;0.30;;;;;;;;;;5014597;28;20206;-70
2022/03/01 06:15:30;;;;;;;0.30;0.30;;;;;;;;;;4996793;28;20244;-71
2022/03/01 06:17:56;;;;;;;0.40;0.40;;;;;;;;;;5015292;28;20213;-70
2022/03/01 06:20:24;;;;;;;0.40;0.40;;;;;;;;;;4995745;28;20205;-71
2022/03/01 06:22:50;;;;;;;0.30;0.30;;;;;;;;;;5016294;28;20240;-71
2022/03/01 06:25:17;;;;;;;0.20;0.20;;;;;;;;;;4994273;28;20277;-71
2022/03/01 06:27:43;;;;;;;0.30;0.30;;;;;;;;;;5017362;28;20232;-71
2022/03/01 06:30:10;;;;;;;0.30;0.30;;;;;;;;;;4993961;28;20213;-71
2022/03/01 06:32:37;;;;;;;0.30;0.30;;;;;;;;;;5017726;28;20234;-71
2022/03/01 06:35:04;;;;;;;0.30;0.30;;;;;;;;;;5003455;28;20209;-70
2022/03/01 06:37:32;;;;;;;0.30;0.30;;;;;;;;;;4976950;28;20240;-71
2022/03/01 06:39:58;;;;;;;0.40;0.40;;;;;;;;;;5006987;28;20248;-70
2022/03/01 06:42:25;;;;;;;0.30;0.30;;;;;;;;;;5012280;28;20287;-70
2022/03/01 06:44:51;;;;;;;0.30;0.30;;;;;;;;;;5007089;28;20206;-70
2022/03/01 06:47:18;;;;;;;0.30;0.30;;;;;;;;;;5012322;28;20244;-70
2022/03/01 06:49:44;;;;;;;0.30;0.30;;;;;;;;;;5007096;28;20538;-71
2022/03/01 06:52:10;;;;;;;0.30;0.30;;;;;;;;;;5012159;28;20641;-70
2022/03/01 06:54:38;;;;;;;0.30;0.30;;;;;;;;;;5007213;28;20206;-70
2022/03/01 06:57:04;;;;;;;1.40;1.40;;;;;;;;;;5011929;28;20263;-72
2022/03/01 06:59:31;;;;;;;0.30;0.30;;;;;;;;;;5006907;28;20277;-71
2022/03/01 07:01:57;;;;;;;0.30;0.30;;;;;;;;;;5010877;28;20254;-70
2022/03/01 07:04:23;;;;;;;0.30;0.30;;;;;;;;;;5007920;28;20248;-70
2022/03/01 07:06:52;;;;;;;0.30;0.30;;;;;;;;;;5009959;28;20241;-71
2022/03/01 07:09:19;;;;;;;0.53;0.53;;;;;;;;;;5008283;28;20209;-70
2022/03/01 07:11:47;;;;;;;0.30;0.30;;;;;;;;;;5009231;28;20341;-72
2022/03/01 07:14:13;;;;;;;0.30;0.30;;;;;;;;;;5008968;28;20277;-71
2022/03/01 07:16:39;;;;;;;0.30;0.30;;;;;;;;;;5008432;28;20232;-68
2022/03/01 07:19:05;;;;;;;0.30;0.30;;;;;;;;;;5009518;28;20221;-72
2022/03/01 07:21:31;;;;;;;0.20;0.20;;;;;;;;;;5007362;28;20271;-71
2022/03/01 07:23:58;;;;;;;0.30;0.30;;;;;;;;;;5010857;28;20206;-70
2022/03/01 07:26:24;;;;;;;0.30;0.30;;;;;;;;;;5006136;28;20359;-71
2022/03/01 07:28:51;;;;;;;0.30;0.30;;;;;;;;;;5011516;28;20435;-70
2022/03/01 07:31:18;;;;;;;0.30;0.30;;;;;;;;;;5005349;28;20280;-69
2022/03/01 07:33:44;;;;;;;0.97;0.97;;;;;;;;;;5011990;28;20240;-69
2022/03/01 07:36:10;;;;;;;0.30;0.30;;;;;;;;;;5003637;28;20241;-70
2022/03/01 07:38:36;;;;;;;0.60;0.60;;;;;;;;;;5013830;28;20233;-70
2022/03/01 07:41:03;;;;;;;0.20;0.20;;;;;;;;;;5003570;28;20288;-70
2022/03/01 07:43:29;;;;;;;0.30;0.30;;;;;;;;;;5014073;28;20210;-70
2022/03/01 07:45:56;;;;;;;0.30;0.30;;;;;;;;;;5002011;28;20252;-70
2022/03/01 07:48:23;;;;;;;0.20;0.20;;;;;;;;;;5014071;28;20205;-69
2022/03/01 07:50:49;;;;;;;0.20;0.20;;;;;;;;;;5001286;28;20312;-70
2022/03/01 07:53:16;;;;;;;0.20;0.20;;;;;;;;;;5015519;28;20213;-71
2022/03/01 07:55:43;;;;;;;0.20;0.20;;;;;;;;;;4999989;28;20242;-70
2022/03/01 07:58:09;;;;;;;0.20;0.20;;;;;;;;;;5016785;28;20232;-70
2022/03/01 08:00:35;;;;;;;0.20;0.20;;;;;;;;;;4999303;28;20514;-65
2022/03/01 08:03:03;;;;;;;0.17;0.17;;;;;;;;;;5017466;28;20197;-65
2022/03/01 08:05:29;;;;;;;0.10;0.10;;;;;;;;;;4998550;28;20291;-70
2022/03/01 08:07:56;;;;;;;0.53;0.23;;;;;;;;;;5017966;28;20244;-69
2022/03/01 08:10:22;;;;;;;5.23;4.60;;;;;;;;;;4996353;28;20209;-69
2022/03/01 08:12:49;;;;;;;0.20;0.20;;;;;;;;;;5019817;28;20539;-69
2022/03/01 08:15:15;;;;;;;0.10;0.10;;;;;;;;;;5001720;28;20229;-68
2022/03/01 08:17:48;;;;;;;0.10;0.10;;;;;;;;;;5019508;28;20588;-69
2022/03/01 08:20:16;;;;;;;0.20;0.20;;;;;;;;;;5005551;28;20474;-69
2022/03/01 08:22:42;;;;;;;0.30;0.30;;;;;;;;;;4978129;28;20206;-69
2022/03/01 08:25:09;;;;;;;0.40;0.40;;;;;;;;;;4995681;28;20214;-69
2022/03/01 08:27:35;;;;;;;0.63;0.63;;;;;;;;;;5020157;28;20243;-70
2022/03/01 08:30:01;;;;;;;0.40;0.40;;;;;;;;;;5005356;28;20218;-71
2022/03/01 08:32:28;;;;;;;0.50;0.50;;;;;;;;;;5010019;28;20242;-66
2022/03/01 08:34:54;;;;;;;0.70;0.70;;;;;;;;;;5005217;28;20195;-67
2022/03/01 08:37:21;;;;;;;0.13;0.13;;;;;;;;;;5009798;28;20236;-66
2022/03/01 08:39:48;;;;;;;0.10;0.10;;;;;;;;;;5004818;28;20208;-67
2022/03/01 08:42:14;;;;;;;0.10;0.10;;;;;;;;;;5009939;28;20285;-66
2022/03/01 08:44:40;;;;;;;0.10;0.10;;;;;;;;;;5004984;28;20434;-66
2022/03/01 08:47:08;;;;;;;0.57;0.57;;;;;;;;;;5009993;28;20243;-67
2022/03/01 08:49:34;;;;;;;0.73;0.73;;;;;;;;;;5004882;28;20248;-66
2022/03/01 08:52:00;;;;;;;0.70;0.70;;;;;;;;;;5008797;28;20241;-66
2022/03/01 08:54:28;;;;;;;0.00;0.00;;;;;;;;;;5005658;28;20264;-66
2022/03/01 08:56:54;;;;;;;0.10;0.10;;;;;;;;;;5005518;28;20241;-67
2022/03/01 08:59:20;;;;;;;0.10;0.10;;;;;;;;;;5007734;28;20206;-68
2022/03/01 09:01:47;;;;;;;0.10;0.10;;;;;;;;;;5006064;28;20447;-67
2022/03/01 09:04:13;;;;;;;0.00;0.00;;;;;;;;;;5007523;28;20211;-67
2022/03/01 09:06:39;;;;;;;0.05;0.05;;;;;;;;;;5005262;28;20241;-68
2022/03/01 09:09:05;;;;;;;0.10;0.10;;;;;;;;;;5008692;28;20478;-68
2022/03/01 09:11:33;;;;;;;0.32;0.32;;;;;;;;;;5005142;28;20244;-66
2022/03/01 09:13:59;;;;;;;0.10;0.10;;;;;;;;;;5008333;28;20310;-69
2022/03/01 09:16:26;;;;;;;0.10;0.10;;;;;;;;;;5004382;28;20427;-68
2022/03/01 09:18:52;;;;;;;1.13;1.13;;;;;;;;;;5009307;28;20250;-68
2022/03/01 09:21:18;;;;;;;0.10;0.10;;;;;;;;;;5003236;28;20248;-68
2022/03/01 09:23:44;;;;;;;0.08;0.08;;;;;;;;;;5009949;28;20207;-67
2022/03/01 09:26:11;;;;;;;0.10;0.10;;;;;;;;;;5001984;28;20301;-68
2022/03/01 09:28:39;;;;;;;0.10;0.10;;;;;;;;;;5011057;28;20210;-67
2022/03/01 09:31:05;;;;;;;0.95;0.95;;;;;;;;;;5001369;28;20243;-68
2022/03/01 09:33:32;;;;;;;0.00;0.00;;;;;;;;;;5010933;28;20240;-68
2022/03/01 09:35:58;;;;;;;0.00;0.00;;;;;;;;;;4998712;28;20242;-68
2022/03/01 09:38:26;;;;;;;0.10;0.10;;;;;;;;;;5013392;28;20243;-68
2022/03/01 09:40:53;;;;;;;0.20;0.20;;;;;;;;;;4998687;28;20269;-68
2022/03/01 09:43:20;;;;;;;0.00;0.00;;;;;;;;;;5012755;28;20505;-68
2022/03/01 09:45:48;;;;;;;0.10;0.10;;;;;;;;;;4996782;28;20268;-67
2022/03/01 09:48:14;;;;;;;0.10;0.10;;;;;;;;;;5014508;28;20246;-68
2022/03/01 09:50:41;;;;;;;0.05;0.05;;;;;;;;;;4996331;28;20242;-67
2022/03/01 09:53:07;;;;;;;0.10;0.10;;;;;;;;;;5014919;28;20197;-67
2022/03/01 09:55:33;;;;;;;0.10;0.10;;;;;;;;;;4996847;28;20441;-67
2022/03/01 09:58:00;;;;;;;0.05;0.05;;;;;;;;;;5014325;28;20229;-68
2022/03/01 10:00:26;;;;;;;0.10;0.10;;;;;;;;;;4994444;28;20448;-68
2022/03/01 10:02:55;;;;;;;0.00;0.00;;;;;;;;;;5016942;28;20420;-67
2022/03/01 10:05:31;;;;;;;0.10;0.10;;;;;;;;;;4994931;28;20431;-68
2022/03/01 10:08:05;;;;;;;0.00;0.00;;;;;;;;;;5015229;28;20391;-67
2022/03/01 10:10:36;;;;;;;0.10;0.10;;;;;;;;;;4995193;28;20430;-67
2022/03/01 10:13:02;;;;;;;0.00;0.00;;;;;;;;;;5016110;28;20542;-67
2022/03/01 10:15:31;;;;;;;0.80;0.80;;;;;;;;;;4994630;28;20279;-68
2022/03/01 10:17:59;;;;;;;0.00;0.00;;;;;;;;;;5016118;28;20216;-68
2022/03/01 10:20:25;;;;;;;0.10;0.10;;;;;;;;;;4995043;28;20212;-67
2022/03/01 10:22:53;;;;;;;0.10;0.10;;;;;;;;;;5015681;28;20543;-67
2022/03/01 10:25:20;;;;;;;0.10;0.10;;;;;;;;;;4994428;28;20211;-66
2022/03/01 10:27:47;;;;;;;0.57;0.57;;;;;;;;;;5016247;28;20193;-67
2022/03/01 10:30:22;;;;;;;0.10;0.10;;;;;;;;;;5003127;28;20209;-68
2022/03/01 10:32:48;;;;;;;0.50;0.50;;;;;;;;;;5008090;28;20242;-67
2022/03/01 10:35:16;;;;;;;0.45;0.45;;;;;;;;;;4994132;28;20250;-67
2022/03/01 10:37:42;;;;;;;0.00;0.00;;;;;;;;;;5017511;28;20291;-68
2022/03/01 10:40:12;;;;;;;0.00;0.00;;;;;;;;;;4993579;28;20208;-69
2022/03/01 10:42:39;;;;;;;0.10;0.10;;;;;;;;;;5017693;28;20222;-67
2022/03/01 10:45:06;;;;;;;0.00;0.00;;;;;;;;;;4998814;28;20208;-69
2022/03/01 10:47:33;;;;;;;0.10;0.10;;;;;;;;;;5018225;28;20367;-67
2022/03/01 10:50:05;;;;;;;0.52;0.10;;;;;;;;;;5003306;28;20209;-67
2022/03/01 10:52:36;;;;;;;0.10;0.10;;;;;;;;;;5008243;28;20244;-67
2022/03/01 10:55:03;;;;;;;0.25;0.25;;;;;;;;;;5003312;28;20252;-68
2022/03/01 10:57:30;;;;;;;0.00;0.00;;;;;;;;;;5008107;28;20349;-68
2022/03/01 10:59:56;;;;;;;0.10;0.10;;;;;;;;;;5003291;28;20399;-67
2022/03/01 11:02:22;;;;;;;0.10;0.10;;;;;;;;;;5007896;28;20241;-68
2022/03/01 11:04:49;;;;;;;0.10;0.10;;;;;;;;;;5003305;28;20555;-67
2022/03/01 11:07:15;;;;;;;0.00;0.00;;;;;;;;;;5008032;28;20641;-67
2022/03/01 11:09:44;;;;;;;0.10;0.10;;;;;;;;;;5003357;28;20245;-67
2022/03/01 11:12:11;;;;;;;0.10;0.10;;;;;;;;;;5007983;28;20244;-68
2022/03/01 11:14:43;;;;;;;0.00;0.00;;;;;;;;;;5003057;28;20249;-69
2022/03/01 11:17:15;;;;;;;0.10;0.10;;;;;;;;;;5008054;28;20306;-69
2022/03/01 11:19:50;;;;;;;0.10;0.10;;;;;;;;;;5002877;28;20218;-67
2022/03/01 11:22:19;;;;;;;0.03;0.03;;;;;;;;;;5007793;28;20451;-68
2022/03/01 11:24:47;;;;;;;0.40;0.40;;;;;;;;;;5005485;28;20213;-68
2022/03/01 11:27:18;;;;;;;0.20;0.20;;;;;;;;;;5011414;28;20249;-66
2022/03/01 11:29:45;;;;;;;0.10;0.10;;;;;;;;;;5006468;28;20238;-67
2022/03/01 11:32:12;;;;;;;0.10;0.10;;;;;;;;;;5011097;28;20290;-67
2022/03/01 11:34:39;;;;;;;0.10;0.10;;;;;;;;;;5006515;28;20209;-68
2022/03/01 11:37:11;;;;;;;0.03;0.03;;;;;;;;;;5011359;28;20441;-68
2022/03/01 11:39:38;;;;;;;0.00;0.00;;;;;;;;;;5006449;28;20225;-68
2022/03/01 11:42:06;;;;;;;0.00;0.00;;;;;;;;;;5011307;28;20299;-69
2022/03/01 11:44:34;;;;;;;0.00;0.00;;;;;;;;;;5006031;28;20524;-68
2022/03/01 11:47:02;;;;;;;0.10;0.10;;;;;;;;;;5010304;28;20274;-67
2022/03/01 11:49:32;;;;;;;0.75;0.32;;;;;;;;;;5006589;28;20225;-67
2022/03/01 11:51:59;;;;;;;0.85;0.85;;;;;;;;;;5010392;28;20240;-68
2022/03/01 11:54:27;;;;;;;0.20;0.20;;;;;;;;;;5006782;28;20397;-67
2022/03/01 11:56:55;;;;;;;0.10;0.10;;;;;;;;;;5009598;28;20241;-68
2022/03/01 11:59:22;;;;;;;4.13;0.80;;;;;;;;;;5007166;28;20230;-68
2022/03/01 12:01:49;;;;;;;0.10;0.10;;;;;;;;;;5008377;28;20303;-67
2022/03/01 12:04:20;;;;;;;0.10;0.10;;;;;;;;;;5008049;28;20275;-68
2022/03/01 12:06:47;;;;;;;0.00;0.00;;;;;;;;;;5008439;28;20240;-67
2022/03/01 12:09:13;;;;;;;0.10;0.10;;;;;;;;;;5008165;28;20500;-68
2022/03/01 12:11:40;;;;;;;0.20;0.20;;;;;;;;;;5007164;28;20244;-68
2022/03/01 12:14:08;;;;;;;0.10;0.10;;;;;;;;;;5008965;28;20251;-67
2022/03/01 12:16:37;;;;;;;0.10;0.10;;;;;;;;;;5006712;28;20242;-68
2022/03/01 12:19:11;;;;;;;0.17;0.17;;;;;;;;;;5008643;28;20231;-68
2022/03/01 12:21:38;;;;;;;0.10;0.10;;;;;;;;;;5007102;28;20252;-67
2022/03/01 12:24:05;;;;;;;0.10;0.10;;;;;;;;;;5008677;28;20257;-68
2022/03/01 12:26:31;;;;;;;0.10;0.10;;;;;;;;;;5005841;28;20241;-68
2022/03/01 12:28:58;;;;;;;0.10;0.10;;;;;;;;;;5009604;28;20242;-67
2022/03/01 12:31:27;;;;;;;0.10;0.10;;;;;;;;;;5005009;28;20310;-67
2022/03/01 12:33:55;;;;;;;1.07;1.07;;;;;;;;;;5009571;28;20238;-68
2022/03/01 12:36:25;;;;;;;1.30;1.30;;;;;;;;;;5003197;28;20303;-67
2022/03/01 12:38:52;;;;;;;0.07;0.07;;;;;;;;;;5011191;28;20232;-67
2022/03/01 12:41:21;;;;;;;0.10;0.10;;;;;;;;;;5003960;28;20249;-67
2022/03/01 12:43:51;;;;;;;0.30;0.30;;;;;;;;;;5010296;28;20207;-68
2022/03/01 12:46:17;;;;;;;0.10;0.10;;;;;;;;;;5003824;28;20551;-67
2022/03/01 12:48:44;;;;;;;0.10;0.10;;;;;;;;;;5010704;28;20206;-68
2022/03/01 12:51:12;;;;;;;0.10;0.10;;;;;;;;;;5001885;28;20241;-67
2022/03/01 12:53:38;;;;;;;0.10;0.10;;;;;;;;;;5013089;28;20509;-67
2022/03/01 12:56:05;;;;;;;0.10;0.10;;;;;;;;;;5002175;28;20241;-67
2022/03/01 12:58:32;;;;;;;0.10;0.10;;;;;;;;;;5012203;28;20284;-67
2022/03/01 13:01:04;;;;;;;0.10;0.10;;;;;;;;;;5001473;28;20266;-68
2022/03/01 13:03:32;;;;;;;0.10;0.10;;;;;;;;;;5012626;28;20206;-68
2022/03/01 13:06:05;;;;;;;0.23;0.23;;;;;;;;;;5001354;28;20242;-68
2022/03/01 13:08:33;;;;;;;0.10;0.10;;;;;;;;;;5012198;28;20217;-67
2022/03/01 13:10:59;;;;;;;0.10;0.10;;;;;;;;;;4999410;28;20249;-67
2022/03/01 13:13:25;;;;;;;0.10;0.10;;;;;;;;;;5014499;28;20384;-67
2022/03/01 13:15:51;;;;;;;0.10;0.10;;;;;;;;;;4999665;28;20305;-68
2022/03/01 13:18:25;;;;;;;0.10;0.10;;;;;;;;;;5014268;28;20209;-66
2022/03/01 13:20:51;;;;;;;0.10;0.10;;;;;;;;;;4997519;28;20570;-66
2022/03/01 13:23:19;;;;;;;0.10;0.10;;;;;;;;;;5016363;28;20201;-67
2022/03/01 13:25:47;;;;;;;0.10;0.10;;;;;;;;;;4998265;28;20487;-67
2022/03/01 13:28:13;;;;;;;0.10;0.10;;;;;;;;;;5015688;28;20253;-66
2022/03/01 13:30:40;;;;;;;0.10;0.10;;;;;;;;;;4998486;28;20289;-66
2022/03/01 13:33:08;;;;;;;0.10;0.10;;;;;;;;;;5014654;28;20233;-67
2022/03/01 13:35:36;;;;;;;0.10;0.10;;;;;;;;;;4995882;28;20238;-67
2022/03/01 13:38:10;;;;;;;0.20;0.20;;;;;;;;;;5018033;28;20197;-67
2022/03/01 13:40:43;;;;;;;0.10;0.10;;;;;;;;;;4996809;28;20427;-66
2022/03/01 13:43:12;;;;;;;0.10;0.10;;;;;;;;;;5016028;28;20209;-67
2022/03/01 13:45:39;;;;;;;0.10;0.10;;;;;;;;;;4996634;28;20249;-67
2022/03/01 13:48:09;;;;;;;0.10;0.10;;;;;;;;;;5015859;28;20207;-67
2022/03/01 13:50:36;;;;;;;0.10;0.10;;;;;;;;;;4997060;28;20243;-68
2022/03/01 13:53:08;;;;;;;0.10;0.10;;;;;;;;;;5016005;28;20368;-67
2022/03/01 13:55:36;;;;;;;0.93;0.93;;;;;;;;;;4997473;28;20548;-67
2022/03/01 13:58:03;;;;;;;0.10;0.10;;;;;;;;;;5014435;28;20195;-67
2022/03/01 14:00:33;;;;;;;0.20;0.20;;;;;;;;;;4995434;28;20382;-68
2022/03/01 14:03:00;;;;;;;0.13;0.13;;;;;;;;;;5015775;28;20550;-68
2022/03/01 14:05:27;;;;;;;0.10;0.10;;;;;;;;;;4995968;28;20376;-68
2022/03/01 14:07:56;;;;;;;0.10;0.10;;;;;;;;;;5015617;28;20271;-67
2022/03/01 14:10:23;;;;;;;0.10;0.10;;;;;;;;;;4994224;28;20208;-68
2022/03/01 14:12:50;;;;;;;0.10;0.10;;;;;;;;;;5017141;28;20514;-67
2022/03/01 14:15:16;;;;;;;0.10;0.10;;;;;;;;;;4994092;28;20220;-67
2022/03/01 14:17:54;;;;;;;0.10;0.10;;;;;;;;;;5017069;28;20202;-67
2022/03/01 14:20:21;;;;;;;0.10;0.10;;;;;;;;;;4993433;28;20239;-67
2022/03/01 14:22:47;;;;;;;0.10;0.10;;;;;;;;;;5017390;28;20217;-67
2022/03/01 14:25:13;;;;;;;0.10;0.10;;;;;;;;;;4999138;28;20208;-68
2022/03/01 14:27:39;;;;;;;0.10;0.10;;;;;;;;;;5017476;28;20444;-68
2022/03/01 14:30:06;;;;;;;0.10;0.10;;;;;;;;;;4997793;28;20206;-66
2022/03/01 14:32:32;;;;;;;0.10;0.10;;;;;;;;;;5017480;28;20457;-67
2022/03/01 14:35:00;;;;;;;0.10;0.10;;;;;;;;;;5002315;28;20513;-68
2022/03/01 14:37:26;;;;;;;0.10;0.10;;;;;;;;;;5007949;28;20302;-67
2022/03/01 14:39:53;;;;;;;0.10;0.10;;;;;;;;;;5003384;28;20240;-67
2022/03/01 14:42:20;;;;;;;0.10;0.10;;;;;;;;;;5008236;28;20286;-68